createdAt,value
2022-09-12T00:00:08.453Z,14
2022-09-12T00:01:10.649Z,14
2022-09-12T00:02:12.512Z,14.1
2022-09-12T00:03:14.260Z,14.1
2022-09-12T00:04:15.492Z,14.1
2022-09-12T00:05:17.492Z,14.1
2022-09-12T00:06:22.790Z,14.1
2022-09-12T00:07:20.312Z,14.1
2022-09-12T00:08:21.296Z,14.2
2022-09-12T00:09:22.732Z,14.2
2022-09-12T00:10:24.321Z,14.2
2022-09-12T00:11:25.400Z,14.3
2022-09-12T00:12:26.496Z,14.3
2022-09-12T00:13:28.373Z,14.3
2022-09-12T00:14:30.292Z,14.3
2022-09-12T00:15:31.366Z,14.3
2022-09-12T00:16:32.354Z,14.3
2022-09-12T00:17:34.272Z,14.3
2022-09-12T00:18:35.367Z,14.3
2022-09-12T00:19:36.301Z,14.3
2022-09-12T00:20:37.292Z,14.3
2022-09-12T00:21:38.692Z,14.4
2022-09-12T00:22:40.482Z,14.3
2022-09-12T00:23:42.351Z,14.3
2022-09-12T00:24:43.313Z,14.3
2022-09-12T00:25:44.252Z,14.3
2022-09-12T00:26:45.733Z,14.3
2022-09-12T00:27:47.556Z,14.3
2022-09-12T00:28:49.411Z,14.3
2022-09-12T00:29:51.433Z,14.3
2022-09-12T00:30:53.272Z,14.4
2022-09-12T00:31:55.333Z,14.4
2022-09-12T00:32:56.293Z,14.4
2022-09-12T00:33:57.274Z,14.4
2022-09-12T00:34:58.274Z,14.4
2022-09-12T00:35:59.452Z,14.3
2022-09-12T00:37:01.374Z,14.3
2022-09-12T00:38:02.393Z,14.3
2022-09-12T00:39:03.291Z,14.4
2022-09-12T00:40:04.683Z,14.4
2022-09-12T00:41:06.338Z,14.5
2022-09-12T00:42:07.292Z,14.5
2022-09-12T00:43:08.386Z,14.5
2022-09-12T00:44:09.372Z,14.5
2022-09-12T00:45:10.372Z,14.5
2022-09-12T00:46:11.353Z,14.5
2022-09-12T00:47:12.415Z,14.5
2022-09-12T00:48:13.495Z,14.5
2022-09-12T00:49:15.352Z,14.5
2022-09-12T00:50:16.413Z,14.5
2022-09-12T00:51:18.312Z,14.5
2022-09-12T00:52:19.335Z,14.6
2022-09-12T00:53:20.373Z,14.6
2022-09-12T00:54:21.311Z,14.6
2022-09-12T00:55:22.452Z,14.6
2022-09-12T00:56:23.521Z,14.6
2022-09-12T00:57:25.380Z,14.5
2022-09-12T00:58:26.415Z,14.4
2022-09-12T00:59:28.493Z,14.4
2022-09-12T01:00:30.472Z,14.5
2022-09-12T01:04:33.395Z,14.5
2022-09-12T01:05:35.336Z,14.4
2022-09-12T01:06:36.274Z,14.4
2022-09-12T01:07:39.990Z,14.5
2022-09-12T01:08:38.277Z,14.5
2022-09-12T01:09:39.319Z,14.5
2022-09-12T01:10:40.362Z,14.4
2022-09-12T01:11:41.555Z,14.4
2022-09-12T01:12:43.673Z,14.5
2022-09-12T01:13:45.491Z,14.5
2022-09-12T01:14:47.406Z,14.5
2022-09-12T01:15:48.497Z,14.5
2022-09-12T01:16:50.558Z,14.5
2022-09-12T01:17:52.535Z,14.5
2022-09-12T01:18:54.454Z,14.5
2022-09-12T01:19:55.554Z,14.5
2022-09-12T01:20:57.658Z,14.5
2022-09-12T01:21:59.314Z,14.5
2022-09-12T01:23:01.009Z,14.5
2022-09-12T01:24:02.357Z,14.5
2022-09-12T01:25:03.353Z,14.5
2022-09-12T01:26:05.397Z,14.5
2022-09-12T01:27:06.334Z,14.5
2022-09-12T01:28:07.315Z,14.5
2022-09-12T01:29:08.346Z,14.5
2022-09-12T01:30:09.422Z,14.5
2022-09-12T01:31:10.484Z,14.5
2022-09-12T01:32:12.410Z,14.6
2022-09-12T01:33:13.415Z,14.5
2022-09-12T01:34:14.373Z,14.5
2022-09-12T01:35:15.414Z,14.6
2022-09-12T01:36:16.342Z,14.5
2022-09-12T01:37:17.318Z,14.5
2022-09-12T01:38:18.278Z,14.5
2022-09-12T01:39:20.314Z,14.5
2022-09-12T01:40:21.395Z,14.5
2022-09-12T01:41:22.314Z,14.6
2022-09-12T01:42:23.314Z,14.5
2022-09-12T01:43:24.355Z,14.5
2022-09-12T01:44:25.358Z,14.5
2022-09-12T01:45:26.391Z,14.5
2022-09-12T01:46:27.403Z,14.4
2022-09-12T01:47:28.562Z,14.3
2022-09-12T01:48:30.456Z,14.3
2022-09-12T01:49:32.558Z,14.3
2022-09-12T01:50:34.321Z,14.3
2022-09-12T01:51:35.454Z,14.3
2022-09-12T01:52:36.365Z,14.2
2022-09-12T01:53:37.294Z,14.2
2022-09-12T01:54:38.354Z,14.3
2022-09-12T01:55:39.314Z,14.3
2022-09-12T01:56:40.394Z,14.3
2022-09-12T01:57:41.424Z,14.3
2022-09-12T01:58:43.405Z,14.3
2022-09-12T01:59:44.478Z,14.3
2022-09-12T02:00:45.947Z,14.3
2022-09-12T02:01:47.484Z,14.3
2022-09-12T02:02:49.338Z,14.2
2022-09-12T02:03:51.375Z,14.2
2022-09-12T02:04:53.394Z,14.2
2022-09-12T02:05:54.442Z,14.2
2022-09-12T02:06:55.355Z,14.2
2022-09-12T02:07:56.894Z,14.2
2022-09-12T02:08:58.483Z,14.2
2022-09-12T02:10:00.554Z,14.2
2022-09-12T02:11:02.433Z,14.2
2022-09-12T02:12:06.883Z,14.2
2022-09-12T02:13:08.355Z,14.3
2022-09-12T02:14:15.374Z,14.3
2022-09-12T02:15:16.400Z,14.3
2022-09-12T02:16:17.410Z,14.3
2022-09-12T02:17:18.377Z,14.3
2022-09-12T02:18:19.337Z,14.3
2022-09-12T02:19:20.334Z,14.3
2022-09-12T02:20:44.246Z,14.3
2022-09-12T02:21:22.394Z,14.3
2022-09-12T02:22:23.374Z,14.3
2022-09-12T02:23:25.423Z,14.3
2022-09-12T02:24:27.660Z,14.3
2022-09-12T02:25:29.794Z,14.3
2022-09-12T02:26:31.475Z,14.3
2022-09-12T02:27:33.618Z,14.3
2022-09-12T02:28:35.498Z,14.3
2022-09-12T02:29:37.375Z,14.3
2022-09-12T02:30:38.419Z,14.2
2022-09-12T02:31:39.395Z,14.2
2022-09-12T02:32:40.375Z,14.2
2022-09-12T02:33:41.395Z,14.2
2022-09-12T02:34:42.416Z,14.2
2022-09-12T02:35:43.414Z,14.2
2022-09-12T02:36:44.382Z,14.2
2022-09-12T02:37:45.354Z,14.2
2022-09-12T02:38:46.555Z,14.1
2022-09-12T02:39:47.444Z,14.1
2022-09-12T02:40:48.399Z,14.1
2022-09-12T02:41:49.434Z,14.1
2022-09-12T02:42:51.332Z,14.1
2022-09-12T02:43:52.374Z,14.1
2022-09-12T02:44:53.355Z,14.1
2022-09-12T02:45:54.488Z,14.1
2022-09-12T02:46:55.435Z,14.1
2022-09-12T02:47:56.614Z,14.2
2022-09-12T02:48:58.735Z,14.2
2022-09-12T02:50:00.554Z,14.2
2022-09-12T02:51:02.434Z,14.2
2022-09-12T02:52:04.456Z,14.2
2022-09-12T02:53:06.354Z,14.2
2022-09-12T02:54:07.500Z,14.2
2022-09-12T02:55:08.333Z,14.3
2022-09-12T02:56:09.354Z,14.3
2022-09-12T02:57:10.394Z,14.3
2022-09-12T02:58:11.354Z,14.2
2022-09-12T02:59:12.454Z,14.2
2022-09-12T03:00:13.454Z,14.3
2022-09-12T03:01:14.412Z,14.3
2022-09-12T03:02:15.383Z,14.2
2022-09-12T03:03:16.402Z,14.2
2022-09-12T03:04:17.431Z,14.2
2022-09-12T03:05:19.443Z,14.2
2022-09-12T03:06:20.374Z,14.1
2022-09-12T03:07:21.336Z,14.2
2022-09-12T03:08:22.317Z,14.2
2022-09-12T03:09:23.375Z,14.2
2022-09-12T03:10:24.418Z,14.2
2022-09-12T03:11:25.374Z,14.2
2022-09-12T03:12:26.383Z,14.2
2022-09-12T03:13:27.476Z,14.2
2022-09-12T03:14:28.522Z,14.2
2022-09-12T03:15:29.492Z,14.2
2022-09-12T03:16:31.490Z,14.2
2022-09-12T03:17:32.394Z,14.2
2022-09-12T03:18:33.555Z,14.2
2022-09-12T03:19:34.395Z,14.2
2022-09-12T03:20:35.394Z,14.2
2022-09-12T03:21:37.374Z,14.2
2022-09-12T03:22:38.355Z,14.1
2022-09-12T03:23:39.334Z,14.1
2022-09-12T03:24:40.395Z,14
2022-09-12T03:25:41.434Z,13.9
2022-09-12T03:26:42.464Z,14
2022-09-12T03:27:44.483Z,14
2022-09-12T03:28:45.557Z,14
2022-09-12T03:29:46.555Z,14
2022-09-12T03:30:48.409Z,14
2022-09-12T03:31:49.441Z,14
2022-09-12T03:32:51.415Z,14
2022-09-12T03:33:53.442Z,14
2022-09-12T03:34:55.414Z,13.9
2022-09-12T03:35:56.410Z,13.9
2022-09-12T03:36:57.415Z,13.9
2022-09-12T03:37:58.395Z,13.9
2022-09-12T03:38:59.413Z,13.9
2022-09-12T03:40:00.497Z,13.9
2022-09-12T03:41:01.955Z,13.9
2022-09-12T03:42:03.428Z,13.9
2022-09-12T03:43:04.394Z,13.9
2022-09-12T03:44:05.434Z,13.9
2022-09-12T03:45:06.454Z,13.9
2022-09-12T03:46:07.502Z,13.9
2022-09-12T03:47:11.197Z,13.9
2022-09-12T03:48:09.394Z,14
2022-09-12T03:49:10.454Z,14
2022-09-12T03:50:11.414Z,14
2022-09-12T03:51:12.411Z,14.1
2022-09-12T03:52:13.394Z,14.1
2022-09-12T03:53:17.176Z,14.1
2022-09-12T03:54:15.405Z,14.1
2022-09-12T03:55:16.443Z,14.1
2022-09-12T03:56:17.421Z,14.1
2022-09-12T03:57:18.376Z,14.1
2022-09-12T03:58:19.414Z,14.1
2022-09-12T03:59:20.415Z,14.1
2022-09-12T04:00:21.475Z,14.1
2022-09-12T04:01:22.875Z,14.1
2022-09-12T04:02:24.462Z,14.1
2022-09-12T04:03:25.534Z,14.1
2022-09-12T04:04:27.474Z,14.1
2022-09-12T04:05:28.682Z,14.1
2022-09-12T04:06:30.442Z,14.1
2022-09-12T04:07:31.375Z,14.1
2022-09-12T04:08:32.576Z,14.1
2022-09-12T04:09:33.395Z,14.2
2022-09-12T04:10:34.414Z,14.2
2022-09-12T04:11:36.437Z,14.1
2022-09-12T04:12:37.422Z,14.1
2022-09-12T04:13:38.394Z,14.1
2022-09-12T04:14:39.434Z,14.2
2022-09-12T04:15:40.494Z,14.1
2022-09-12T04:16:41.499Z,14.1
2022-09-12T04:17:42.439Z,14.1
2022-09-12T04:18:43.415Z,14.1
2022-09-12T04:19:44.415Z,14.1
2022-09-12T04:20:45.424Z,14.1
2022-09-12T04:21:46.494Z,14.1
2022-09-12T04:22:47.474Z,14.1
2022-09-12T04:23:49.474Z,14.2
2022-09-12T04:24:51.754Z,14.2
2022-09-12T04:25:53.615Z,14.2
2022-09-12T04:26:55.834Z,14.2
2022-09-12T04:27:57.537Z,14.3
2022-09-12T04:28:58.715Z,14.3
2022-09-12T04:30:00.442Z,14.3
2022-09-12T04:31:01.621Z,14.3
2022-09-12T04:32:03.614Z,14.2
2022-09-12T04:33:08.091Z,14.2
2022-09-12T04:34:07.914Z,14.2
2022-09-12T04:35:09.694Z,14.3
2022-09-12T04:36:11.624Z,14.3
2022-09-12T04:37:13.514Z,14.3
2022-09-12T04:38:14.456Z,14.3
2022-09-12T04:39:15.475Z,14.3
2022-09-12T04:40:16.481Z,14.3
2022-09-12T04:41:17.383Z,14.4
2022-09-12T04:42:18.594Z,14.4
2022-09-12T04:43:20.815Z,14.4
2022-09-12T04:44:22.436Z,14.4
2022-09-12T04:45:23.434Z,14.5
2022-09-12T04:46:24.434Z,14.5
2022-09-12T04:47:25.494Z,14.4
2022-09-12T04:48:26.443Z,14.5
2022-09-12T04:49:27.417Z,14.5
2022-09-12T04:50:28.795Z,14.5
2022-09-12T04:51:30.455Z,14.5
2022-09-12T04:52:31.675Z,14.6
2022-09-12T04:53:33.714Z,14.6
2022-09-12T04:54:35.617Z,14.7
2022-09-12T04:55:37.695Z,14.7
2022-09-12T04:56:39.416Z,14.7
2022-09-12T04:57:40.474Z,14.7
2022-09-12T04:58:41.460Z,14.7
2022-09-12T04:59:42.474Z,14.8
2022-09-12T05:00:43.495Z,14.7
2022-09-12T05:01:44.438Z,14.7
2022-09-12T05:02:45.434Z,14.7
2022-09-12T05:03:47.527Z,14.7
2022-09-12T05:04:49.418Z,14.7
2022-09-12T05:05:55.846Z,14.7
2022-09-12T05:06:53.523Z,14.7
2022-09-12T05:07:54.418Z,14.6
2022-09-12T05:08:55.476Z,14.7
2022-09-12T05:09:56.483Z,14.7
2022-09-12T05:10:57.494Z,14.7
2022-09-12T05:12:04.058Z,14.7
2022-09-12T05:13:00.454Z,14.8
2022-09-12T05:14:01.535Z,14.8
2022-09-12T05:15:03.276Z,14.8
2022-09-12T05:16:04.797Z,14.9
2022-09-12T05:17:06.575Z,14.8
2022-09-12T05:18:08.435Z,14.8
2022-09-12T05:19:09.500Z,14.8
2022-09-12T05:20:11.437Z,14.7
2022-09-12T05:21:12.432Z,14.7
2022-09-12T05:22:14.048Z,14.7
2022-09-12T05:23:16.134Z,14.8
2022-09-12T05:24:17.497Z,14.8
2022-09-12T05:25:18.697Z,14.8
2022-09-12T05:26:20.443Z,14.8
2022-09-12T05:27:21.454Z,14.8
2022-09-12T05:28:22.494Z,14.9
2022-09-12T05:29:23.456Z,14.9
2022-09-12T05:30:24.721Z,14.9
2022-09-12T05:31:26.461Z,14.9
2022-09-12T05:32:27.524Z,14.9
2022-09-12T05:33:28.495Z,14.9
2022-09-12T05:34:29.760Z,14.9
2022-09-12T05:35:31.475Z,14.9
2022-09-12T05:36:32.459Z,14.8
2022-09-12T05:37:33.483Z,14.9
2022-09-12T05:38:34.533Z,14.9
2022-09-12T05:39:36.515Z,15
2022-09-12T05:40:38.555Z,15
2022-09-12T05:41:39.455Z,15
2022-09-12T05:42:40.615Z,15
2022-09-12T05:43:41.655Z,15.1
2022-09-12T05:44:44.014Z,15.1
2022-09-12T05:45:45.617Z,15.1
2022-09-12T05:46:47.754Z,15.1
2022-09-12T05:47:49.533Z,15.1
2022-09-12T05:48:55.781Z,15.2
2022-09-12T05:49:53.499Z,15.3
2022-09-12T05:50:54.494Z,15.3
2022-09-12T05:51:55.494Z,15.3
2022-09-12T05:52:56.494Z,15.4
2022-09-12T05:53:57.474Z,15.5
2022-09-12T05:54:58.515Z,15.5
2022-09-12T05:55:59.515Z,15.4
2022-09-12T05:57:00.552Z,15.3
2022-09-12T05:58:01.514Z,15.3
2022-09-12T05:59:02.534Z,15.2
2022-09-12T06:00:03.574Z,15.3
2022-09-12T06:01:04.607Z,15.4
2022-09-12T06:02:05.627Z,15.4
2022-09-12T06:03:07.576Z,15.3
2022-09-12T06:04:08.615Z,15.3
2022-09-12T06:05:10.758Z,15.3
2022-09-12T06:06:12.554Z,15.3
2022-09-12T06:07:13.535Z,15.4
2022-09-12T06:08:15.003Z,15.4
2022-09-12T06:09:16.648Z,15.5
2022-09-12T06:10:18.754Z,15.6
2022-09-12T06:11:20.794Z,15.6
2022-09-12T06:12:22.654Z,15.7
2022-09-12T06:13:24.695Z,15.6
2022-09-12T06:14:26.475Z,15.7
2022-09-12T06:15:27.514Z,15.8
2022-09-12T06:16:28.767Z,15.9
2022-09-12T06:17:29.508Z,16
2022-09-12T06:18:30.522Z,16.1
2022-09-12T06:19:31.493Z,16.3
2022-09-12T06:20:32.538Z,16.4
2022-09-12T06:21:33.554Z,16.4
2022-09-12T06:22:34.495Z,16.5
2022-09-12T06:23:35.514Z,16.5
2022-09-12T06:24:36.619Z,16.6
2022-09-12T06:25:37.634Z,16.6
2022-09-12T06:26:39.574Z,16.6
2022-09-12T06:27:40.975Z,16.6
2022-09-12T06:28:42.556Z,16.6
2022-09-12T06:29:43.834Z,16.6
2022-09-12T06:30:45.480Z,16.7
2022-09-12T06:31:46.535Z,16.7
2022-09-12T06:32:47.536Z,16.8
2022-09-12T06:33:48.554Z,16.9
2022-09-12T06:34:49.615Z,16.9
2022-09-12T06:35:50.547Z,16.7
2022-09-12T06:36:51.534Z,16.6
2022-09-12T06:37:52.536Z,16.5
2022-09-12T06:38:53.538Z,16.5
2022-09-12T06:39:54.552Z,16.5
2022-09-12T06:40:55.515Z,16.5
2022-09-12T06:41:56.476Z,16.4
2022-09-12T06:42:57.474Z,16.5
2022-09-12T06:43:58.554Z,16.5
2022-09-12T06:44:59.570Z,16.6
2022-09-12T06:46:00.549Z,16.7
2022-09-12T06:47:01.603Z,16.8
2022-09-12T06:48:02.555Z,16.9
2022-09-12T06:49:03.635Z,17.1
2022-09-12T06:50:04.644Z,17.3
2022-09-12T06:51:05.641Z,17.2
2022-09-12T06:52:07.534Z,17.3
2022-09-12T06:53:08.554Z,17.3
2022-09-12T06:54:09.614Z,17.4
2022-09-12T06:55:12.289Z,17.3
2022-09-12T06:56:13.499Z,17.3
2022-09-12T06:57:14.554Z,17.2
2022-09-12T06:58:15.682Z,17.1
2022-09-12T06:59:17.534Z,17
2022-09-12T07:00:18.554Z,17
2022-09-12T07:01:19.646Z,17.1
2022-09-12T07:02:20.569Z,17.1
2022-09-12T07:03:21.595Z,17.2
2022-09-12T07:04:22.514Z,17.2
2022-09-12T07:05:23.501Z,17.2
2022-09-12T07:06:24.579Z,17.3
2022-09-12T07:07:25.523Z,17.4
2022-09-12T07:08:26.514Z,17.5
2022-09-12T07:09:27.542Z,17.5
2022-09-12T07:10:28.514Z,17.7
2022-09-12T07:11:29.595Z,17.7
2022-09-12T07:12:30.574Z,17.8
2022-09-12T07:13:32.394Z,17.9
2022-09-12T07:14:33.542Z,18
2022-09-12T07:15:34.516Z,18.1
2022-09-12T07:16:35.777Z,18.2
2022-09-12T07:17:37.514Z,18
2022-09-12T07:18:38.554Z,17.8
2022-09-12T07:19:39.874Z,17.8
2022-09-12T07:20:41.576Z,17.7
2022-09-12T07:21:42.602Z,17.7
2022-09-12T07:22:43.734Z,17.7
2022-09-12T07:23:45.590Z,17.7
2022-09-12T07:24:46.563Z,17.7
2022-09-12T07:25:47.575Z,17.8
2022-09-12T07:26:48.555Z,17.7
2022-09-12T07:27:51.258Z,17.4
2022-09-12T07:28:50.497Z,17.2
2022-09-12T07:29:51.734Z,17.1
2022-09-12T07:30:53.556Z,17.1
2022-09-12T07:31:54.514Z,17.1
2022-09-12T07:32:55.554Z,17
2022-09-12T07:33:56.673Z,17
2022-09-12T07:34:57.694Z,17.1
2022-09-12T07:35:59.954Z,17.2
2022-09-12T07:37:01.699Z,17.2
2022-09-12T07:38:03.574Z,17.2
2022-09-12T07:39:04.685Z,17.2
2022-09-12T07:40:05.816Z,17.1
2022-09-12T07:41:07.953Z,17.1
2022-09-12T07:42:09.933Z,17.1
2022-09-12T07:43:11.655Z,17.1
2022-09-12T07:44:12.773Z,17.1
2022-09-12T07:45:14.937Z,17
2022-09-12T07:46:16.781Z,17
2022-09-12T07:47:18.543Z,16.9
2022-09-12T07:48:19.514Z,16.9
2022-09-12T07:49:20.471Z,16.9
2022-09-12T07:50:21.642Z,16.9
2022-09-12T07:51:22.794Z,17
2022-09-12T07:52:24.957Z,17
2022-09-12T07:53:26.678Z,17.1
2022-09-12T07:54:28.556Z,17.2
2022-09-12T07:55:29.814Z,17.3
2022-09-12T07:56:34.662Z,17.3
2022-09-12T07:57:33.563Z,17.4
2022-09-12T07:58:34.535Z,17.3
2022-09-12T07:59:51.798Z,17.2
2022-09-12T08:00:36.622Z,17.3
2022-09-12T08:01:38.714Z,17.4
2022-09-12T08:02:41.183Z,17.5
2022-09-12T08:03:42.546Z,17.6
2022-09-12T08:04:43.576Z,17.7
2022-09-12T08:05:44.541Z,17.8
2022-09-12T08:06:45.563Z,18
2022-09-12T08:07:46.629Z,18.2
2022-09-12T08:08:47.808Z,18.3
2022-09-12T08:09:49.685Z,18.2
2022-09-12T08:10:50.515Z,18.2
2022-09-12T08:11:52.754Z,18.2
2022-09-12T08:12:54.501Z,18.2
2022-09-12T08:13:56.043Z,18.2
2022-09-12T08:14:56.487Z,18.2
2022-09-12T08:15:57.605Z,18.2
2022-09-12T08:16:58.599Z,18.3
2022-09-12T08:17:59.682Z,18.2
2022-09-12T08:19:01.615Z,17.9
2022-09-12T08:20:02.554Z,17.7
2022-09-12T08:21:03.582Z,17.6
2022-09-12T08:22:04.634Z,17.6
2022-09-12T08:23:05.587Z,17.6
2022-09-12T08:24:06.685Z,17.7
2022-09-12T08:25:08.034Z,17.7
2022-09-12T08:26:10.114Z,17.7
2022-09-12T08:27:12.183Z,17.8
2022-09-12T08:28:13.719Z,17.8
2022-09-12T08:29:15.532Z,17.8
2022-09-12T08:30:16.733Z,17.9
2022-09-12T08:31:18.554Z,17.8
2022-09-12T08:32:19.649Z,17.8
2022-09-12T08:33:20.855Z,17.9
2022-09-12T08:34:22.635Z,17.9
2022-09-12T08:35:23.654Z,17.9
2022-09-12T08:36:24.855Z,18
2022-09-12T08:37:26.702Z,17.9
2022-09-12T08:38:27.603Z,18
2022-09-12T08:39:28.596Z,18.2
2022-09-12T08:40:29.653Z,18.4
2022-09-12T08:41:30.795Z,18.5
2022-09-12T08:42:32.641Z,18.7
2022-09-12T08:43:34.814Z,18.8
2022-09-12T08:44:35.579Z,18.9
2022-09-12T08:45:36.691Z,18.8
2022-09-12T08:46:37.757Z,18.9
2022-09-12T08:47:39.634Z,19
2022-09-12T08:48:40.754Z,19.2
2022-09-12T08:49:42.554Z,19.1
2022-09-12T08:50:46.670Z,19.1
2022-09-12T08:51:44.594Z,19.1
2022-09-12T08:52:46.174Z,19.2
2022-09-12T08:53:47.731Z,19.2
2022-09-12T08:54:48.582Z,19.2
2022-09-12T08:55:49.600Z,19.1
2022-09-12T08:56:50.582Z,18.8
2022-09-12T08:57:51.598Z,18.5
2022-09-12T08:58:52.655Z,18.4
2022-09-12T08:59:53.896Z,18.3
2022-09-12T09:00:55.622Z,18.1
2022-09-12T09:01:56.771Z,18
2022-09-12T09:02:58.665Z,17.9
2022-09-12T09:03:59.642Z,17.7
2022-09-12T09:05:00.622Z,17.7
2022-09-12T09:06:01.658Z,17.5
2022-09-12T09:07:02.675Z,17.4
2022-09-12T09:08:03.654Z,17.3
2022-09-12T09:09:04.681Z,17.3
2022-09-12T09:10:05.674Z,17.3
2022-09-12T09:11:06.635Z,17.3
2022-09-12T09:12:07.643Z,17.3
2022-09-12T09:13:08.600Z,17.1
2022-09-12T09:14:10.634Z,17
2022-09-12T09:15:12.634Z,17
2022-09-12T09:16:13.749Z,17
2022-09-12T09:17:14.654Z,17
2022-09-12T09:18:15.641Z,17
2022-09-12T09:19:16.575Z,17
2022-09-12T09:20:17.654Z,17
2022-09-12T09:21:18.623Z,17
2022-09-12T09:22:19.636Z,17.1
2022-09-12T09:23:20.573Z,17.1
2022-09-12T09:24:21.563Z,17.1
2022-09-12T09:25:23.083Z,17
2022-09-12T09:26:23.773Z,17.1
2022-09-12T09:27:39.688Z,17.1
2022-09-12T09:28:26.614Z,17.2
2022-09-12T09:29:27.574Z,17.3
2022-09-12T09:30:28.579Z,17.4
2022-09-12T09:31:29.775Z,17.4
2022-09-12T09:32:31.690Z,17.4
2022-09-12T09:33:32.634Z,17.6
2022-09-12T09:34:33.615Z,17.7
2022-09-12T09:35:36.572Z,17.8
2022-09-12T09:36:35.655Z,17.9
2022-09-12T09:37:36.643Z,18
2022-09-12T09:38:37.773Z,18
2022-09-12T09:39:39.856Z,17.9
2022-09-12T09:40:41.914Z,17.9
2022-09-12T09:41:43.597Z,18
2022-09-12T09:42:44.902Z,18.2
2022-09-12T09:43:46.615Z,18.3
2022-09-12T09:44:47.722Z,18.5
2022-09-12T09:45:48.884Z,18.6
2022-09-12T09:46:50.762Z,18.7
2022-09-12T09:47:52.775Z,18.9
2022-09-12T09:48:54.795Z,18.9
2022-09-12T09:49:55.655Z,19
2022-09-12T09:50:56.714Z,19.2
2022-09-12T09:51:58.865Z,19.3
2022-09-12T09:52:58.834Z,19.5
2022-09-12T09:54:00.628Z,19.7
2022-09-12T09:55:01.720Z,19.8
2022-09-12T09:56:02.774Z,19.8
2022-09-12T09:57:04.875Z,19.7
2022-09-12T09:58:06.654Z,19.6
2022-09-12T09:59:07.637Z,19.4
2022-09-12T10:00:08.655Z,19.4
2022-09-12T10:01:10.097Z,19.3
2022-09-12T10:02:11.783Z,19.3
2022-09-12T10:03:14.068Z,19.3
2022-09-12T10:04:14.683Z,19.2
2022-09-12T10:05:15.697Z,19.2
2022-09-12T10:06:16.654Z,19.1
2022-09-12T10:07:17.655Z,19.1
2022-09-12T10:08:18.656Z,19
2022-09-12T10:09:20.225Z,19
2022-09-12T10:10:21.658Z,19
2022-09-12T10:11:22.779Z,19
2022-09-12T10:12:23.635Z,18.9
2022-09-12T10:13:24.674Z,18.9
2022-09-12T10:14:25.674Z,18.8
2022-09-12T10:15:26.650Z,18.9
2022-09-12T10:16:27.597Z,18.9
2022-09-12T10:17:33.415Z,18.9
2022-09-12T10:18:29.795Z,18.9
2022-09-12T10:19:31.622Z,18.9
2022-09-12T10:20:32.630Z,18.9
2022-09-12T10:21:33.734Z,19
2022-09-12T10:22:34.614Z,19.1
2022-09-12T10:23:36.042Z,19.3
2022-09-12T10:24:37.836Z,19.4
2022-09-12T10:25:39.719Z,19.4
2022-09-12T10:26:41.194Z,19.3
2022-09-12T10:27:42.655Z,19.3
2022-09-12T10:28:43.646Z,19.4
2022-09-12T10:29:44.676Z,19.5
2022-09-12T10:30:45.743Z,19.6
2022-09-12T10:31:46.654Z,19.5
2022-09-12T10:32:47.663Z,19.4
2022-09-12T10:33:48.814Z,19.3
2022-09-12T10:34:49.856Z,19.1
2022-09-12T10:35:51.653Z,19
2022-09-12T10:36:52.638Z,18.9
2022-09-12T10:37:53.754Z,18.9
2022-09-12T10:38:54.615Z,18.9
2022-09-12T10:39:55.717Z,18.9
2022-09-12T10:40:56.853Z,19.1
2022-09-12T10:41:58.615Z,19.2
2022-09-12T10:42:59.694Z,19.4
2022-09-12T10:44:00.674Z,19.6
2022-09-12T10:45:01.754Z,19.6
2022-09-12T10:46:02.827Z,19.5
2022-09-12T10:47:03.635Z,19.4
2022-09-12T10:48:07.613Z,19.3
2022-09-12T10:49:07.057Z,19.2
2022-09-12T10:50:08.719Z,19.2
2022-09-12T10:51:09.835Z,19.1
2022-09-12T10:52:11.716Z,19.1
2022-09-12T10:53:12.615Z,19.1
2022-09-12T10:54:13.636Z,19.2
2022-09-12T10:55:14.934Z,19.2
2022-09-12T10:56:16.900Z,19.1
2022-09-12T10:57:18.614Z,19.2
2022-09-12T10:58:19.895Z,19.3
2022-09-12T10:59:21.614Z,19.3
2022-09-12T11:00:22.654Z,19.5
2022-09-12T11:01:23.725Z,19.6
2022-09-12T11:02:24.645Z,19.7
2022-09-12T11:03:25.614Z,19.7
2022-09-12T11:04:26.774Z,19.6
2022-09-12T11:05:27.634Z,19.5
2022-09-12T11:06:28.696Z,19.4
2022-09-12T11:07:29.757Z,19.2
2022-09-12T11:08:30.675Z,19
2022-09-12T11:09:31.697Z,18.9
2022-09-12T11:10:36.420Z,18.9
2022-09-12T11:11:33.865Z,19
2022-09-12T11:12:34.656Z,19.1
2022-09-12T11:13:35.703Z,19.2
2022-09-12T11:14:37.119Z,19.3
2022-09-12T11:15:38.747Z,19.4
2022-09-12T11:16:42.778Z,19.5
2022-09-12T11:17:41.734Z,19.5
2022-09-12T11:18:42.975Z,19.5
2022-09-12T11:19:44.702Z,19.5
2022-09-12T11:20:45.913Z,19.6
2022-09-12T11:21:47.674Z,19.6
2022-09-12T11:22:48.735Z,19.8
2022-09-12T11:23:49.834Z,19.9
2022-09-12T11:24:51.675Z,20
2022-09-12T11:25:52.660Z,20.1
2022-09-12T11:26:53.659Z,20.2
2022-09-12T11:27:54.694Z,20.2
2022-09-12T11:28:55.695Z,20.5
2022-09-12T11:29:56.694Z,20.6
2022-09-12T11:30:57.745Z,20.8
2022-09-12T11:31:58.715Z,20.9
2022-09-12T11:32:59.742Z,21
2022-09-12T11:34:00.655Z,21.1
2022-09-12T11:35:01.768Z,21.1
2022-09-12T11:36:02.726Z,20.8
2022-09-12T11:37:06.417Z,20.5
2022-09-12T11:38:04.716Z,20.4
2022-09-12T11:39:05.723Z,20.3
2022-09-12T11:40:06.878Z,20.2
2022-09-12T11:41:08.658Z,20.2
2022-09-12T11:42:09.759Z,20.1
2022-09-12T11:43:10.674Z,19.9
2022-09-12T11:44:11.736Z,19.9
2022-09-12T11:45:12.734Z,20
2022-09-12T11:46:13.753Z,19.9
2022-09-12T11:47:16.275Z,20
2022-09-12T11:48:17.755Z,20
2022-09-12T11:49:19.808Z,20.1
2022-09-12T11:50:20.797Z,20.1
2022-09-12T11:51:21.694Z,20
2022-09-12T11:52:23.700Z,20
2022-09-12T11:53:24.734Z,20.1
2022-09-12T11:54:25.834Z,20.1
2022-09-12T11:55:27.776Z,20.1
2022-09-12T11:56:28.674Z,20
2022-09-12T11:57:29.746Z,20
2022-09-12T11:58:30.675Z,19.9
2022-09-12T11:59:31.640Z,19.9
2022-09-12T12:00:32.645Z,19.8
2022-09-12T12:01:36.316Z,19.8
2022-09-12T12:02:34.660Z,19.8
2022-09-12T12:03:35.628Z,19.8
2022-09-12T12:04:36.648Z,19.8
2022-09-12T12:05:37.675Z,19.7
2022-09-12T12:06:38.764Z,19.6
2022-09-12T12:07:43.385Z,19.6
2022-09-12T12:08:40.977Z,19.5
2022-09-12T12:09:42.674Z,19.4
2022-09-12T12:10:44.695Z,19.4
2022-09-12T12:11:45.755Z,19.3
2022-09-12T12:12:47.704Z,19.3
2022-09-12T12:13:49.753Z,19.4
2022-09-12T12:14:50.648Z,19.4
2022-09-12T12:15:51.738Z,19.5
2022-09-12T12:16:53.651Z,19.7
2022-09-12T12:17:54.733Z,19.8
2022-09-12T12:18:55.675Z,20
2022-09-12T12:19:58.401Z,20.1
2022-09-12T12:20:57.715Z,20.2
2022-09-12T12:21:58.735Z,20.3
2022-09-12T12:23:00.795Z,20.5
2022-09-12T12:24:02.875Z,20.7
2022-09-12T12:25:04.723Z,20.8
2022-09-12T12:26:05.654Z,20.8
2022-09-12T12:27:06.751Z,20.9
2022-09-12T12:28:08.921Z,21
2022-09-12T12:29:10.734Z,21.2
2022-09-12T12:30:11.775Z,21.1
2022-09-12T12:31:13.368Z,21
2022-09-12T12:32:14.854Z,21
2022-09-12T12:33:15.774Z,21
2022-09-12T12:34:16.763Z,21
2022-09-12T12:35:17.716Z,21.1
2022-09-12T12:36:18.755Z,21.2
2022-09-12T12:37:19.721Z,21
2022-09-12T12:38:20.704Z,21
2022-09-12T12:39:21.783Z,20.9
2022-09-12T12:40:23.860Z,20.6
2022-09-12T12:41:25.754Z,20.4
2022-09-12T12:42:26.676Z,20.2
2022-09-12T12:43:27.679Z,20.1
2022-09-12T12:44:28.776Z,20
2022-09-12T12:45:29.758Z,20
2022-09-12T12:46:30.775Z,20
2022-09-12T12:47:31.795Z,20
2022-09-12T12:48:32.860Z,20.1
2022-09-12T12:49:34.855Z,20.1
2022-09-12T12:50:36.796Z,20.2
2022-09-12T12:51:38.995Z,20.4
2022-09-12T12:52:41.083Z,20.5
2022-09-12T12:53:42.788Z,20.5
2022-09-12T12:54:43.735Z,20.6
2022-09-12T12:55:44.699Z,20.5
2022-09-12T12:56:45.975Z,20.5
2022-09-12T12:57:47.936Z,20.4
2022-09-12T12:58:49.873Z,20.3
2022-09-12T12:59:51.727Z,20.3
2022-09-12T13:00:53.483Z,20.3
2022-09-12T13:01:55.922Z,20.2
2022-09-12T13:02:57.780Z,20.2
2022-09-12T13:03:58.714Z,20.1
2022-09-12T13:05:00.412Z,20.1
2022-09-12T13:06:01.650Z,20.1
2022-09-12T13:07:07.274Z,20
2022-09-12T13:08:03.695Z,19.9
2022-09-12T13:09:04.795Z,19.8
2022-09-12T13:10:06.848Z,19.7
2022-09-12T13:11:08.842Z,19.6
2022-09-12T13:12:11.922Z,19.5
2022-09-12T13:13:12.657Z,19.4
2022-09-12T13:14:13.741Z,19.4
2022-09-12T13:15:14.698Z,19.5
2022-09-12T13:16:15.813Z,19.5
2022-09-12T13:17:17.078Z,19.5
2022-09-12T13:18:18.736Z,19.6
2022-09-12T13:19:19.697Z,19.6
2022-09-12T13:20:29.173Z,19.6
2022-09-12T13:21:21.682Z,19.7
2022-09-12T13:22:22.695Z,19.8
2022-09-12T13:23:24.645Z,19.8
2022-09-12T13:24:25.659Z,19.8
2022-09-12T13:25:26.729Z,19.8
2022-09-12T13:26:27.735Z,19.8
2022-09-12T13:27:28.667Z,19.8
2022-09-12T13:28:29.903Z,19.7
2022-09-12T13:29:32.078Z,19.6
2022-09-12T13:30:33.864Z,19.5
2022-09-12T13:31:34.756Z,19.5
2022-09-12T13:32:35.936Z,19.5
2022-09-12T13:33:37.964Z,19.6
2022-09-12T13:34:39.775Z,19.6
2022-09-12T13:35:41.735Z,19.5
2022-09-12T13:36:43.755Z,19.5
2022-09-12T13:37:46.743Z,19.4
2022-09-12T13:38:45.855Z,19.3
2022-09-12T13:39:47.025Z,19.2
2022-09-12T13:40:48.978Z,19.3
2022-09-12T13:41:50.815Z,19.4
2022-09-12T13:42:51.806Z,19.6
2022-09-12T13:43:53.095Z,19.7